sensor_id;sensor_type;location;lat;lon;timestamp;temperature;humidity
51305;HTU21D;37392;50.964;6.952;2022-12-05T00:01:42;3.31;117.79
51305;HTU21D;37392;50.964;6.952;2022-12-05T00:04:11;3.29;117.75
51305;HTU21D;37392;50.964;6.952;2022-12-05T00:06:39;3.29;117.71
51305;HTU21D;37392;50.964;6.952;2022-12-05T00:09:07;3.33;118.05
51305;HTU21D;37392;50.964;6.952;2022-12-05T00:11:36;3.33;118.10
51305;HTU21D;37392;50.964;6.952;2022-12-05T00:14:10;3.30;117.89
51305;HTU21D;37392;50.964;6.952;2022-12-05T00:17:14;3.31;117.95
51305;HTU21D;37392;50.964;6.952;2022-12-05T00:20:32;3.31;117.45
51305;HTU21D;37392;50.964;6.952;2022-12-05T00:23:17;3.34;117.66
51305;HTU21D;37392;50.964;6.952;2022-12-05T00:29:18;3.31;117.33
51305;HTU21D;37392;50.964;6.952;2022-12-05T00:31:51;3.35;117.45
51305;HTU21D;37392;50.964;6.952;2022-12-05T00:34:40;3.36;117.30
51305;HTU21D;37392;50.964;6.952;2022-12-05T00:37:06;3.35;117.15
51305;HTU21D;37392;50.964;6.952;2022-12-05T00:39:31;3.33;116.43
51305;HTU21D;37392;50.964;6.952;2022-12-05T00:41:57;3.33;116.43
51305;HTU21D;37392;50.964;6.952;2022-12-05T00:44:22;3.33;117.11
51305;HTU21D;37392;50.964;6.952;2022-12-05T00:46:48;3.33;116.51
51305;HTU21D;37392;50.964;6.952;2022-12-05T00:49:13;3.36;117.17
51305;HTU21D;37392;50.964;6.952;2022-12-05T00:51:41;3.35;116.35
51305;HTU21D;37392;50.964;6.952;2022-12-05T00:54:10;3.31;116.44
51305;HTU21D;37392;50.964;6.952;2022-12-05T00:56:37;3.32;116.38
51305;HTU21D;37392;50.964;6.952;2022-12-05T00:59:03;3.34;117.28
51305;HTU21D;37392;50.964;6.952;2022-12-05T01:01:37;3.32;117.75
51305;HTU21D;37392;50.964;6.952;2022-12-05T01:04:10;3.31;117.11
51305;HTU21D;37392;50.964;6.952;2022-12-05T01:06:38;3.31;117.34
51305;HTU21D;37392;50.964;6.952;2022-12-05T01:09:04;3.31;117.36
51305;HTU21D;37392;50.964;6.952;2022-12-05T01:11:31;3.32;117.28
51305;HTU21D;37392;50.964;6.952;2022-12-05T01:13:57;3.30;117.34
51305;HTU21D;37392;50.964;6.952;2022-12-05T01:16:27;3.33;117.17
51305;HTU21D;37392;50.964;6.952;2022-12-05T01:18:58;3.32;116.47
51305;HTU21D;37392;50.964;6.952;2022-12-05T01:21:24;3.32;117.41
51305;HTU21D;37392;50.964;6.952;2022-12-05T01:23:50;3.32;117.15
51305;HTU21D;37392;50.964;6.952;2022-12-05T01:26:18;3.36;117.61
51305;HTU21D;37392;50.964;6.952;2022-12-05T01:28:46;3.33;117.09
51305;HTU21D;37392;50.964;6.952;2022-12-05T01:31:23;3.32;117.28
51305;HTU21D;37392;50.964;6.952;2022-12-05T01:33:51;3.31;116.35
51305;HTU21D;37392;50.964;6.952;2022-12-05T01:36:18;3.30;117.15
51305;HTU21D;37392;50.964;6.952;2022-12-05T01:38:43;3.31;117.31
51305;HTU21D;37392;50.964;6.952;2022-12-05T01:41:15;3.31;117.21
51305;HTU21D;37392;50.964;6.952;2022-12-05T01:46:43;3.29;117.57
51305;HTU21D;37392;50.964;6.952;2022-12-05T01:51:42;3.23;117.59
51305;HTU21D;37392;50.964;6.952;2022-12-05T01:54:11;3.21;117.61
51305;HTU21D;37392;50.964;6.952;2022-12-05T01:56:39;3.26;118.05
51305;HTU21D;37392;50.964;6.952;2022-12-05T01:59:07;3.26;118.02
51305;HTU21D;37392;50.964;6.952;2022-12-05T02:01:34;3.21;117.89
51305;HTU21D;37392;50.964;6.952;2022-12-05T02:04:00;3.21;118.16
51305;HTU21D;37392;50.964;6.952;2022-12-05T02:06:27;3.20;117.64
51305;HTU21D;37392;50.964;6.952;2022-12-05T02:08:53;3.14;117.31
51305;HTU21D;37392;50.964;6.952;2022-12-05T02:11:20;3.16;117.45
51305;HTU21D;37392;50.964;6.952;2022-12-05T02:28:23;3.02;118.46
51305;HTU21D;37392;50.964;6.952;2022-12-05T02:31:26;3.03;118.86
51305;HTU21D;37392;50.964;6.952;2022-12-05T02:36:59;3.00;118.70
51305;HTU21D;37392;50.964;6.952;2022-12-05T02:45:30;2.91;-5.80
51305;HTU21D;37392;50.964;6.952;2022-12-05T02:47:59;2.89;-5.63
51305;HTU21D;37392;50.964;6.952;2022-12-05T02:50:30;2.87;-5.28
51305;HTU21D;37392;50.964;6.952;2022-12-05T02:53:03;2.87;-4.89
51305;HTU21D;37392;50.964;6.952;2022-12-05T02:55:34;2.79;-5.30
51305;HTU21D;37392;50.964;6.952;2022-12-05T02:58:04;2.73;-5.50
51305;HTU21D;37392;50.964;6.952;2022-12-05T03:00:34;2.67;-5.31
51305;HTU21D;37392;50.964;6.952;2022-12-05T03:03:01;2.68;-4.72
51305;HTU21D;37392;50.964;6.952;2022-12-05T03:05:45;2.62;-5.16
51305;HTU21D;37392;50.964;6.952;2022-12-05T03:08:22;2.58;-5.20
51305;HTU21D;37392;50.964;6.952;2022-12-05T03:10:50;2.49;-5.05
51305;HTU21D;37392;50.964;6.952;2022-12-05T03:13:22;2.43;-4.72
51305;HTU21D;37392;50.964;6.952;2022-12-05T03:15:55;2.47;-4.58
51305;HTU21D;37392;50.964;6.952;2022-12-05T03:18:32;2.43;-5.29
51305;HTU21D;37392;50.964;6.952;2022-12-05T03:24:03;2.37;-4.72
51305;HTU21D;37392;50.964;6.952;2022-12-05T03:29:39;2.30;-4.15
51305;HTU21D;37392;50.964;6.952;2022-12-05T03:32:16;2.28;-4.03
51305;HTU21D;37392;50.964;6.952;2022-12-05T03:35:11;2.16;-4.12
51305;HTU21D;37392;50.964;6.952;2022-12-05T03:37:57;2.06;-4.44
51305;HTU21D;37392;50.964;6.952;2022-12-05T03:43:14;2.02;-4.71
51305;HTU21D;37392;50.964;6.952;2022-12-05T03:48:37;1.87;-4.78
51305;HTU21D;37392;50.964;6.952;2022-12-05T03:51:17;1.87;-4.28
51305;HTU21D;37392;50.964;6.952;2022-12-05T03:53:57;1.83;-4.02
51305;HTU21D;37392;50.964;6.952;2022-12-05T03:56:42;1.81;-3.87
51305;HTU21D;37392;50.964;6.952;2022-12-05T04:01:49;1.78;-3.55
51305;HTU21D;37392;50.964;6.952;2022-12-05T04:04:23;1.76;-3.42
51305;HTU21D;37392;50.964;6.952;2022-12-05T04:06:52;1.72;-3.35
51305;HTU21D;37392;50.964;6.952;2022-12-05T04:09:23;1.71;-3.42
51305;HTU21D;37392;50.964;6.952;2022-12-05T04:11:58;1.65;-3.47
51305;HTU21D;37392;50.964;6.952;2022-12-05T04:14:40;1.58;-3.54
51305;HTU21D;37392;50.964;6.952;2022-12-05T04:17:29;1.56;-3.34
51305;HTU21D;37392;50.964;6.952;2022-12-05T04:20:37;1.60;-2.94
51305;HTU21D;37392;50.964;6.952;2022-12-05T04:23:24;1.56;-2.92
51305;HTU21D;37392;50.964;6.952;2022-12-05T04:28:36;1.50;-2.76
51305;HTU21D;37392;50.964;6.952;2022-12-05T04:31:19;1.56;-2.53
51305;HTU21D;37392;50.964;6.952;2022-12-05T04:33:55;1.63;-2.32
51305;HTU21D;37392;50.964;6.952;2022-12-05T04:39:16;1.68;-2.16
51305;HTU21D;37392;50.964;6.952;2022-12-05T04:41:52;1.68;-2.12
51305;HTU21D;37392;50.964;6.952;2022-12-05T04:44:48;1.71;-1.96
51305;HTU21D;37392;50.964;6.952;2022-12-05T04:47:18;1.80;-1.95
51305;HTU21D;37392;50.964;6.952;2022-12-05T04:49:46;1.81;-1.96
51305;HTU21D;37392;50.964;6.952;2022-12-05T04:52:13;1.84;-1.89
51305;HTU21D;37392;50.964;6.952;2022-12-05T04:54:52;1.87;-1.80
51305;HTU21D;37392;50.964;6.952;2022-12-05T04:57:32;1.86;-1.81
51305;HTU21D;37392;50.964;6.952;2022-12-05T05:00:03;1.90;-1.71
51305;HTU21D;37392;50.964;6.952;2022-12-05T05:02:39;1.88;-1.65
51305;HTU21D;37392;50.964;6.952;2022-12-05T05:05:10;1.88;-1.68
51305;HTU21D;37392;50.964;6.952;2022-12-05T05:07:45;1.88;-1.79
51305;HTU21D;37392;50.964;6.952;2022-12-05T05:10:15;1.72;-2.18
51305;HTU21D;37392;50.964;6.952;2022-12-05T05:12:44;1.69;-2.10
51305;HTU21D;37392;50.964;6.952;2022-12-05T05:15:10;1.64;-2.24
51305;HTU21D;37392;50.964;6.952;2022-12-05T05:17:35;1.63;-2.22
51305;HTU21D;37392;50.964;6.952;2022-12-05T05:20:01;1.64;-2.11
51305;HTU21D;37392;50.964;6.952;2022-12-05T05:22:47;1.68;-1.97
51305;HTU21D;37392;50.964;6.952;2022-12-05T05:25:14;1.71;-1.96
51305;HTU21D;37392;50.964;6.952;2022-12-05T05:27:40;1.63;-2.07
51305;HTU21D;37392;50.964;6.952;2022-12-05T05:30:06;1.57;-2.14
51305;HTU21D;37392;50.964;6.952;2022-12-05T05:32:32;1.57;-2.07
51305;HTU21D;37392;50.964;6.952;2022-12-05T05:34:57;1.60;-2.01
51305;HTU21D;37392;50.964;6.952;2022-12-05T05:37:23;1.60;-1.90
51305;HTU21D;37392;50.964;6.952;2022-12-05T05:39:48;1.64;-1.88
51305;HTU21D;37392;50.964;6.952;2022-12-05T05:42:14;1.62;-1.84
51305;HTU21D;37392;50.964;6.952;2022-12-05T05:44:39;1.61;-1.84
51305;HTU21D;37392;50.964;6.952;2022-12-05T05:47:05;1.63;-1.80
51305;HTU21D;37392;50.964;6.952;2022-12-05T05:49:31;1.63;-1.80
51305;HTU21D;37392;50.964;6.952;2022-12-05T05:51:56;1.60;-1.76
51305;HTU21D;37392;50.964;6.952;2022-12-05T05:54:22;1.54;-1.86
51305;HTU21D;37392;50.964;6.952;2022-12-05T05:56:47;1.48;-1.86
51305;HTU21D;37392;50.964;6.952;2022-12-05T05:59:13;1.50;-1.74
51305;HTU21D;37392;50.964;6.952;2022-12-05T06:01:38;1.53;-1.62
51305;HTU21D;37392;50.964;6.952;2022-12-05T06:04:04;1.57;-1.59
51305;HTU21D;37392;50.964;6.952;2022-12-05T06:06:30;1.62;-1.51
51305;HTU21D;37392;50.964;6.952;2022-12-05T06:08:56;1.63;-1.50
51305;HTU21D;37392;50.964;6.952;2022-12-05T06:11:24;1.63;-1.45
51305;HTU21D;37392;50.964;6.952;2022-12-05T06:13:52;1.58;-1.52
51305;HTU21D;37392;50.964;6.952;2022-12-05T06:16:21;1.54;-1.57
51305;HTU21D;37392;50.964;6.952;2022-12-05T06:18:47;1.45;-1.61
51305;HTU21D;37392;50.964;6.952;2022-12-05T06:21:14;1.40;-1.61
51305;HTU21D;37392;50.964;6.952;2022-12-05T06:23:39;1.40;-1.53
51305;HTU21D;37392;50.964;6.952;2022-12-05T06:26:09;1.45;-1.45
51305;HTU21D;37392;50.964;6.952;2022-12-05T06:28:36;1.47;-1.43
51305;HTU21D;37392;50.964;6.952;2022-12-05T06:31:11;1.48;-1.43
51305;HTU21D;37392;50.964;6.952;2022-12-05T06:33:38;1.50;-1.45
51305;HTU21D;37392;50.964;6.952;2022-12-05T06:36:06;1.49;-1.49
51305;HTU21D;37392;50.964;6.952;2022-12-05T06:38:34;1.49;-1.47
51305;HTU21D;37392;50.964;6.952;2022-12-05T06:40:59;1.49;-1.47
51305;HTU21D;37392;50.964;6.952;2022-12-05T06:43:29;1.51;-1.46
51305;HTU21D;37392;50.964;6.952;2022-12-05T06:45:55;1.49;-1.46
51305;HTU21D;37392;50.964;6.952;2022-12-05T06:48:21;1.51;-1.44
51305;HTU21D;37392;50.964;6.952;2022-12-05T06:50:49;1.53;-1.34
51305;HTU21D;37392;50.964;6.952;2022-12-05T06:53:15;1.54;-1.35
51305;HTU21D;37392;50.964;6.952;2022-12-05T06:55:41;1.52;-1.38
51305;HTU21D;37392;50.964;6.952;2022-12-05T06:58:06;1.55;-1.32
51305;HTU21D;37392;50.964;6.952;2022-12-05T07:00:32;1.57;-1.28
51305;HTU21D;37392;50.964;6.952;2022-12-05T07:03:16;1.51;-1.32
51305;HTU21D;37392;50.964;6.952;2022-12-05T07:05:42;1.56;-1.24
51305;HTU21D;37392;50.964;6.952;2022-12-05T07:08:07;1.54;-1.29
51305;HTU21D;37392;50.964;6.952;2022-12-05T07:10:33;1.53;-1.28
51305;HTU21D;37392;50.964;6.952;2022-12-05T07:13:03;1.51;-1.22
51305;HTU21D;37392;50.964;6.952;2022-12-05T07:15:29;1.57;-1.20
51305;HTU21D;37392;50.964;6.952;2022-12-05T07:17:55;1.57;-1.15
51305;HTU21D;37392;50.964;6.952;2022-12-05T07:20:20;1.62;-1.13
51305;HTU21D;37392;50.964;6.952;2022-12-05T07:22:46;1.63;-1.11
51305;HTU21D;37392;50.964;6.952;2022-12-05T07:25:11;1.69;-1.06
51305;HTU21D;37392;50.964;6.952;2022-12-05T07:27:37;1.69;-1.07
51305;HTU21D;37392;50.964;6.952;2022-12-05T07:30:04;1.79;-0.98
51305;HTU21D;37392;50.964;6.952;2022-12-05T07:32:32;1.80;-1.00
51305;HTU21D;37392;50.964;6.952;2022-12-05T07:34:58;1.82;-1.02
51305;HTU21D;37392;50.964;6.952;2022-12-05T07:37:23;1.82;-1.07
51305;HTU21D;37392;50.964;6.952;2022-12-05T07:39:53;1.85;-1.07
51305;HTU21D;37392;50.964;6.952;2022-12-05T07:42:18;1.84;-1.15
51305;HTU21D;37392;50.964;6.952;2022-12-05T07:44:44;1.84;-1.10
51305;HTU21D;37392;50.964;6.952;2022-12-05T07:47:10;1.86;-1.09
51305;HTU21D;37392;50.964;6.952;2022-12-05T07:49:36;1.88;-1.06
51305;HTU21D;37392;50.964;6.952;2022-12-05T07:52:01;1.91;-1.06
51305;HTU21D;37392;50.964;6.952;2022-12-05T07:54:27;1.90;-1.15
51305;HTU21D;37392;50.964;6.952;2022-12-05T07:56:53;1.93;-1.19
51305;HTU21D;37392;50.964;6.952;2022-12-05T07:59:18;1.99;-1.12
51305;HTU21D;37392;50.964;6.952;2022-12-05T08:01:44;2.02;-1.08
51305;HTU21D;37392;50.964;6.952;2022-12-05T08:04:10;2.07;-1.07
51305;HTU21D;37392;50.964;6.952;2022-12-05T08:06:36;2.08;-1.09
51305;HTU21D;37392;50.964;6.952;2022-12-05T08:09:02;2.17;-1.12
51305;HTU21D;37392;50.964;6.952;2022-12-05T08:11:32;2.17;-1.09
51305;HTU21D;37392;50.964;6.952;2022-12-05T08:14:02;2.17;-1.22
51305;HTU21D;37392;50.964;6.952;2022-12-05T08:16:30;2.13;-1.24
51305;HTU21D;37392;50.964;6.952;2022-12-05T08:19:02;2.11;-1.22
51305;HTU21D;37392;50.964;6.952;2022-12-05T08:21:30;2.13;-1.25
51305;HTU21D;37392;50.964;6.952;2022-12-05T08:23:56;2.14;-1.32
51305;HTU21D;37392;50.964;6.952;2022-12-05T08:26:24;2.12;-1.35
51305;HTU21D;37392;50.964;6.952;2022-12-05T08:28:54;2.23;-1.25
51305;HTU21D;37392;50.964;6.952;2022-12-05T08:31:22;2.23;-1.25
51305;HTU21D;37392;50.964;6.952;2022-12-05T08:33:49;2.20;-1.43
51305;HTU21D;37392;50.964;6.952;2022-12-05T08:36:15;2.23;-1.35
51305;HTU21D;37392;50.964;6.952;2022-12-05T08:38:42;2.26;-1.40
51305;HTU21D;37392;50.964;6.952;2022-12-05T08:41:10;2.27;-1.26
51305;HTU21D;37392;50.964;6.952;2022-12-05T08:43:37;2.30;-1.30
51305;HTU21D;37392;50.964;6.952;2022-12-05T08:46:04;2.32;-1.18
51305;HTU21D;37392;50.964;6.952;2022-12-05T08:48:30;2.40;-1.18
51305;HTU21D;37392;50.964;6.952;2022-12-05T08:51:14;2.45;-1.08
51305;HTU21D;37392;50.964;6.952;2022-12-05T08:53:40;2.44;-1.19
51305;HTU21D;37392;50.964;6.952;2022-12-05T08:56:08;2.52;-1.18
51305;HTU21D;37392;50.964;6.952;2022-12-05T08:58:35;2.53;-1.16
51305;HTU21D;37392;50.964;6.952;2022-12-05T09:01:12;2.50;-1.12
51305;HTU21D;37392;50.964;6.952;2022-12-05T09:03:40;2.51;-1.12
51305;HTU21D;37392;50.964;6.952;2022-12-05T09:06:11;2.51;-1.11
51305;HTU21D;37392;50.964;6.952;2022-12-05T09:08:40;2.53;-1.09
51305;HTU21D;37392;50.964;6.952;2022-12-05T09:11:08;2.58;-1.09
51305;HTU21D;37392;50.964;6.952;2022-12-05T09:13:35;2.58;-1.14
51305;HTU21D;37392;50.964;6.952;2022-12-05T09:16:09;2.59;-1.12
51305;HTU21D;37392;50.964;6.952;2022-12-05T09:18:43;2.62;-1.19
51305;HTU21D;37392;50.964;6.952;2022-12-05T09:21:15;2.60;-1.18
51305;HTU21D;37392;50.964;6.952;2022-12-05T09:23:46;2.62;-1.16
51305;HTU21D;37392;50.964;6.952;2022-12-05T09:26:14;2.66;-1.18
51305;HTU21D;37392;50.964;6.952;2022-12-05T09:28:41;2.67;-1.28
51305;HTU21D;37392;50.964;6.952;2022-12-05T09:31:10;2.70;-1.37
51305;HTU21D;37392;50.964;6.952;2022-12-05T09:33:37;2.75;-1.39
51305;HTU21D;37392;50.964;6.952;2022-12-05T09:36:21;2.74;-1.45
51305;HTU21D;37392;50.964;6.952;2022-12-05T09:38:48;2.83;-1.49
51305;HTU21D;37392;50.964;6.952;2022-12-05T09:53:33;2.87;-1.58
51305;HTU21D;37392;50.964;6.952;2022-12-05T09:58:53;2.96;-1.65
51305;HTU21D;37392;50.964;6.952;2022-12-05T10:07:05;3.30;-1.57
51305;HTU21D;37392;50.964;6.952;2022-12-05T10:15:31;3.57;-2.10
51305;HTU21D;37392;50.964;6.952;2022-12-05T10:18:14;3.62;-2.09
51305;HTU21D;37392;50.964;6.952;2022-12-05T10:23:50;3.65;-2.58
51305;HTU21D;37392;50.964;6.952;2022-12-05T10:26:20;3.74;-2.55
51305;HTU21D;37392;50.964;6.952;2022-12-05T10:28:54;3.67;-3.19
51305;HTU21D;37392;50.964;6.952;2022-12-05T10:31:25;3.55;-3.63
51305;HTU21D;37392;50.964;6.952;2022-12-05T10:37:25;3.60;-2.83
51305;HTU21D;37392;50.964;6.952;2022-12-05T10:39:51;3.60;-2.91
51305;HTU21D;37392;50.964;6.952;2022-12-05T10:42:27;3.67;-2.86
51305;HTU21D;37392;50.964;6.952;2022-12-05T10:45:06;3.69;-3.20
51305;HTU21D;37392;50.964;6.952;2022-12-05T10:47:37;3.86;-2.83
51305;HTU21D;37392;50.964;6.952;2022-12-05T10:52:53;3.98;-3.51
51305;HTU21D;37392;50.964;6.952;2022-12-05T10:55:20;4.10;-3.63
51305;HTU21D;37392;50.964;6.952;2022-12-05T10:57:52;4.32;-2.76
51305;HTU21D;37392;50.964;6.952;2022-12-05T11:00:33;4.42;-3.15
51305;HTU21D;37392;50.964;6.952;2022-12-05T11:03:03;4.53;-3.35
51305;HTU21D;37392;50.964;6.952;2022-12-05T11:05:40;4.58;-4.22
51305;HTU21D;37392;50.964;6.952;2022-12-05T11:08:21;4.59;-4.10
51305;HTU21D;37392;50.964;6.952;2022-12-05T11:10:47;4.57;-3.96
51305;HTU21D;37392;50.964;6.952;2022-12-05T11:13:16;4.44;-4.85
51305;HTU21D;37392;50.964;6.952;2022-12-05T11:15:49;4.32;-5.31
51305;HTU21D;37392;50.964;6.952;2022-12-05T11:18:28;4.34;-4.55
51305;HTU21D;37392;50.964;6.952;2022-12-05T11:20:57;4.38;-4.12
51305;HTU21D;37392;50.964;6.952;2022-12-05T11:23:33;4.36;-4.51
51305;HTU21D;37392;50.964;6.952;2022-12-05T11:25:58;4.38;-4.29
51305;HTU21D;37392;50.964;6.952;2022-12-05T11:28:33;4.48;-4.09
51305;HTU21D;37392;50.964;6.952;2022-12-05T11:33:31;4.52;-4.63
51305;HTU21D;37392;50.964;6.952;2022-12-05T11:36:19;4.57;-4.32
51305;HTU21D;37392;50.964;6.952;2022-12-05T11:38:47;4.52;-4.31
51305;HTU21D;37392;50.964;6.952;2022-12-05T11:50:41;4.29;-4.90
51305;HTU21D;37392;50.964;6.952;2022-12-05T12:00:18;4.53;-4.46
51305;HTU21D;37392;50.964;6.952;2022-12-05T12:02:55;4.52;-5.27
51305;HTU21D;37392;50.964;6.952;2022-12-05T12:08:24;4.64;-5.16
51305;HTU21D;37392;50.964;6.952;2022-12-05T12:11:12;4.65;-5.04
51305;HTU21D;37392;50.964;6.952;2022-12-05T12:17:03;4.73;-4.87
51305;HTU21D;37392;50.964;6.952;2022-12-05T12:23:05;4.78;-5.68
51305;HTU21D;37392;50.964;6.952;2022-12-05T12:28:36;4.92;-5.40
51305;HTU21D;37392;50.964;6.952;2022-12-05T12:31:39;4.93;118.92
51305;HTU21D;37392;50.964;6.952;2022-12-05T12:40:54;5.00;117.42
51305;HTU21D;37392;50.964;6.952;2022-12-05T12:43:46;5.03;117.65
51305;HTU21D;37392;50.964;6.952;2022-12-05T12:52:02;5.01;117.21
51305;HTU21D;37392;50.964;6.952;2022-12-05T13:03:29;4.84;118.29
51305;HTU21D;37392;50.964;6.952;2022-12-05T13:08:57;4.89;118.21
51305;HTU21D;37392;50.964;6.952;2022-12-05T13:11:28;4.84;118.13
51305;HTU21D;37392;50.964;6.952;2022-12-05T13:14:00;4.73;117.83
51305;HTU21D;37392;50.964;6.952;2022-12-05T13:16:30;4.71;118.25
51305;HTU21D;37392;50.964;6.952;2022-12-05T13:18:59;4.71;118.96
51305;HTU21D;37392;50.964;6.952;2022-12-05T13:21:26;4.58;118.05
51305;HTU21D;37392;50.964;6.952;2022-12-05T13:23:54;4.57;-5.73
51305;HTU21D;37392;50.964;6.952;2022-12-05T13:26:23;4.50;118.86
51305;HTU21D;37392;50.964;6.952;2022-12-05T13:28:52;4.48;-5.86
51305;HTU21D;37392;50.964;6.952;2022-12-05T13:31:41;4.45;-5.61
51305;HTU21D;37392;50.964;6.952;2022-12-05T13:34:45;4.36;-5.92
51305;HTU21D;37392;50.964;6.952;2022-12-05T13:37:27;4.42;-5.08
51305;HTU21D;37392;50.964;6.952;2022-12-05T13:40:23;4.39;-5.50
51305;HTU21D;37392;50.964;6.952;2022-12-05T13:43:18;4.36;-5.68
51305;HTU21D;37392;50.964;6.952;2022-12-05T13:46:01;4.35;-4.98
51305;HTU21D;37392;50.964;6.952;2022-12-05T13:48:36;4.29;-5.37
51305;HTU21D;37392;50.964;6.952;2022-12-05T13:51:20;4.28;-5.25
51305;HTU21D;37392;50.964;6.952;2022-12-05T13:53:57;4.16;-5.40
51305;HTU21D;37392;50.964;6.952;2022-12-05T13:56:51;4.17;-4.65
51305;HTU21D;37392;50.964;6.952;2022-12-05T14:07:45;3.98;-5.31
51305;HTU21D;37392;50.964;6.952;2022-12-05T14:13:37;3.91;-4.66
51305;HTU21D;37392;50.964;6.952;2022-12-05T14:15:49;3.86;-5.18
51305;HTU21D;37392;50.964;6.952;2022-12-05T14:21:16;3.73;-4.71
51305;HTU21D;37392;50.964;6.952;2022-12-05T14:32:35;3.56;-5.76
51305;HTU21D;37392;50.964;6.952;2022-12-05T14:35:28;3.57;-4.83
51305;HTU21D;37392;50.964;6.952;2022-12-05T14:38:04;3.55;-4.87
51305;HTU21D;37392;50.964;6.952;2022-12-05T14:40:39;3.50;-4.94
51305;HTU21D;37392;50.964;6.952;2022-12-05T14:43:32;3.49;-4.83
51305;HTU21D;37392;50.964;6.952;2022-12-05T14:46:13;3.50;-4.44
51305;HTU21D;37392;50.964;6.952;2022-12-05T14:48:43;3.49;-4.57
51305;HTU21D;37392;50.964;6.952;2022-12-05T14:56:31;3.41;-4.22
51305;HTU21D;37392;50.964;6.952;2022-12-05T15:02:28;3.39;-3.97
51305;HTU21D;37392;50.964;6.952;2022-12-05T15:05:32;3.38;-3.92
51305;HTU21D;37392;50.964;6.952;2022-12-05T15:07:59;3.34;-3.91
51305;HTU21D;37392;50.964;6.952;2022-12-05T15:10:32;3.30;-3.92
51305;HTU21D;37392;50.964;6.952;2022-12-05T15:13:08;3.27;-3.98
51305;HTU21D;37392;50.964;6.952;2022-12-05T15:18:27;3.19;-4.00
51305;HTU21D;37392;50.964;6.952;2022-12-05T15:21:35;3.16;-3.74
51305;HTU21D;37392;50.964;6.952;2022-12-05T15:24:16;3.13;-3.60
51305;HTU21D;37392;50.964;6.952;2022-12-05T15:26:46;3.09;-3.67
51305;HTU21D;37392;50.964;6.952;2022-12-05T15:37:15;3.05;-3.02
51305;HTU21D;37392;50.964;6.952;2022-12-05T15:39:55;3.05;-2.83
51305;HTU21D;37392;50.964;6.952;2022-12-05T15:42:42;3.04;-2.88
51305;HTU21D;37392;50.964;6.952;2022-12-05T15:47:42;3.03;-2.97
51305;HTU21D;37392;50.964;6.952;2022-12-05T15:58:27;2.94;-2.70
51305;HTU21D;37392;50.964;6.952;2022-12-05T16:01:25;2.94;-2.57
51305;HTU21D;37392;50.964;6.952;2022-12-05T16:04:02;2.94;-2.48
51305;HTU21D;37392;50.964;6.952;2022-12-05T16:06:36;2.93;-2.48
51305;HTU21D;37392;50.964;6.952;2022-12-05T16:09:05;2.88;-2.78
51305;HTU21D;37392;50.964;6.952;2022-12-05T16:11:33;2.91;-2.57
51305;HTU21D;37392;50.964;6.952;2022-12-05T16:14:03;2.89;-2.53
51305;HTU21D;37392;50.964;6.952;2022-12-05T16:16:34;2.82;-2.93
51305;HTU21D;37392;50.964;6.952;2022-12-05T16:19:21;2.82;-2.75
51305;HTU21D;37392;50.964;6.952;2022-12-05T16:24:41;2.80;-2.34
51305;HTU21D;37392;50.964;6.952;2022-12-05T16:27:25;2.76;-2.28
51305;HTU21D;37392;50.964;6.952;2022-12-05T16:32:44;2.73;-2.13
51305;HTU21D;37392;50.964;6.952;2022-12-05T16:35:36;2.73;-2.04
51305;HTU21D;37392;50.964;6.952;2022-12-05T16:48:38;2.62;-2.28
51305;HTU21D;37392;50.964;6.952;2022-12-05T16:51:23;2.59;-2.16
51305;HTU21D;37392;50.964;6.952;2022-12-05T16:53:55;2.56;-2.13
51305;HTU21D;37392;50.964;6.952;2022-12-05T16:56:29;2.52;-2.12
51305;HTU21D;37392;50.964;6.952;2022-12-05T16:58:56;2.54;-1.99
51305;HTU21D;37392;50.964;6.952;2022-12-05T17:01:26;2.53;-1.88
51305;HTU21D;37392;50.964;6.952;2022-12-05T17:03:53;2.47;-2.16
51305;HTU21D;37392;50.964;6.952;2022-12-05T17:06:20;2.46;-2.03
51305;HTU21D;37392;50.964;6.952;2022-12-05T17:08:49;2.44;-1.92
51305;HTU21D;37392;50.964;6.952;2022-12-05T17:11:22;2.47;-1.70
51305;HTU21D;37392;50.964;6.952;2022-12-05T17:23:00;2.39;-1.59
51305;HTU21D;37392;50.964;6.952;2022-12-05T17:29:12;2.28;-1.56
51305;HTU21D;37392;50.964;6.952;2022-12-05T17:32:01;2.30;-1.43
51305;HTU21D;37392;50.964;6.952;2022-12-05T17:38:08;2.23;-1.60
51305;HTU21D;37392;50.964;6.952;2022-12-05T17:45:17;2.19;-1.38
51305;HTU21D;37392;50.964;6.952;2022-12-05T17:48:24;2.12;-1.41
51305;HTU21D;37392;50.964;6.952;2022-12-05T17:50:59;2.07;-1.41
51305;HTU21D;37392;50.964;6.952;2022-12-05T18:03:27;1.90;-1.26
51305;HTU21D;37392;50.964;6.952;2022-12-05T18:05:53;1.95;-1.29
51305;HTU21D;37392;50.964;6.952;2022-12-05T18:08:19;1.94;-1.25
51305;HTU21D;37392;50.964;6.952;2022-12-05T18:10:47;1.94;-1.11
51305;HTU21D;37392;50.964;6.952;2022-12-05T18:13:14;1.91;-1.13
51305;HTU21D;37392;50.964;6.952;2022-12-05T18:15:41;1.92;-1.12
51305;HTU21D;37392;50.964;6.952;2022-12-05T18:18:08;1.95;-1.07
51305;HTU21D;37392;50.964;6.952;2022-12-05T18:20:38;1.96;-1.11
51305;HTU21D;37392;50.964;6.952;2022-12-05T18:23:03;1.94;-1.11
51305;HTU21D;37392;50.964;6.952;2022-12-05T18:25:32;1.93;-1.12
51305;HTU21D;37392;50.964;6.952;2022-12-05T18:28:01;1.91;-1.35
51305;HTU21D;37392;50.964;6.952;2022-12-05T18:30:26;1.90;-1.36
51305;HTU21D;37392;50.964;6.952;2022-12-05T18:32:52;1.92;-1.25
51305;HTU21D;37392;50.964;6.952;2022-12-05T18:35:18;1.92;-1.16
51305;HTU21D;37392;50.964;6.952;2022-12-05T18:41:08;1.96;-0.95
51305;HTU21D;37392;50.964;6.952;2022-12-05T18:43:34;2.00;-0.93
51305;HTU21D;37392;50.964;6.952;2022-12-05T18:46:03;1.99;-0.85
51305;HTU21D;37392;50.964;6.952;2022-12-05T18:48:31;2.01;-0.99
51305;HTU21D;37392;50.964;6.952;2022-12-05T18:51:20;2.01;-0.87
51305;HTU21D;37392;50.964;6.952;2022-12-05T18:53:48;2.03;-0.88
51305;HTU21D;37392;50.964;6.952;2022-12-05T18:56:27;2.03;-1.00
51305;HTU21D;37392;50.964;6.952;2022-12-05T18:58:59;2.06;-1.01
51305;HTU21D;37392;50.964;6.952;2022-12-05T19:01:30;2.05;-1.03
51305;HTU21D;37392;50.964;6.952;2022-12-05T19:04:01;2.08;-0.94
51305;HTU21D;37392;50.964;6.952;2022-12-05T19:06:29;2.09;-0.90
51305;HTU21D;37392;50.964;6.952;2022-12-05T19:08:59;2.09;-0.87
51305;HTU21D;37392;50.964;6.952;2022-12-05T19:11:26;2.11;-0.81
51305;HTU21D;37392;50.964;6.952;2022-12-05T19:13:57;2.12;-0.73
51305;HTU21D;37392;50.964;6.952;2022-12-05T19:16:29;2.12;-0.70
51305;HTU21D;37392;50.964;6.952;2022-12-05T19:18:58;2.12;-0.77
51305;HTU21D;37392;50.964;6.952;2022-12-05T19:21:26;2.13;-0.71
51305;HTU21D;37392;50.964;6.952;2022-12-05T19:23:53;2.16;-0.64
51305;HTU21D;37392;50.964;6.952;2022-12-05T19:26:20;2.17;-0.61
51305;HTU21D;37392;50.964;6.952;2022-12-05T19:28:48;2.20;-0.62
51305;HTU21D;37392;50.964;6.952;2022-12-05T19:31:17;2.21;-0.70
51305;HTU21D;37392;50.964;6.952;2022-12-05T19:33:52;2.16;-0.76
51305;HTU21D;37392;50.964;6.952;2022-12-05T19:36:39;2.20;-0.72
51305;HTU21D;37392;50.964;6.952;2022-12-05T19:39:11;2.23;-0.77
51305;HTU21D;37392;50.964;6.952;2022-12-05T19:41:42;2.21;-0.93
51305;HTU21D;37392;50.964;6.952;2022-12-05T19:44:15;2.24;-0.91
51305;HTU21D;37392;50.964;6.952;2022-12-05T19:46:41;2.23;-1.03
51305;HTU21D;37392;50.964;6.952;2022-12-05T19:49:10;2.23;-1.03
51305;HTU21D;37392;50.964;6.952;2022-12-05T19:51:37;2.21;-1.00
51305;HTU21D;37392;50.964;6.952;2022-12-05T19:54:04;2.24;-1.12
51305;HTU21D;37392;50.964;6.952;2022-12-05T19:56:33;2.24;-1.19
51305;HTU21D;37392;50.964;6.952;2022-12-05T19:58:59;2.24;-1.11
51305;HTU21D;37392;50.964;6.952;2022-12-05T20:01:32;2.20;-1.09
51305;HTU21D;37392;50.964;6.952;2022-12-05T20:04:01;2.17;-1.16
51305;HTU21D;37392;50.964;6.952;2022-12-05T20:06:42;2.14;-1.12